Capt. W.d. Nunley — WDF6047 — position and weather

sailwx.info

Track history (hours):
 
Tides and Currents Weather Stations Pressure Air Temp Water Temp Dewpoint Dewpoint Depression Visibility Wind Speed Wind Dir Waves Ship Positions

Capt. W.d. Nunley

Owner: Florida Marine Transporters, LLC, Mandeville, LA. More information available from US FCC via Universal Licensing System and Coast Guard Vessel Documentation Center.

Last reported at 2018-May-21 18:14 UTC. Time now 2018-May-23 01:34 UTC.
Position N 29°56' W 090°23'.

Length 37 m; draft 2.9 m.

Type: Ship (hazmat cat A). MMSI: 367470060.

Date/timePositionNaut miles runAvg speedWind from/ knotsBaromVisibWave heightAir tempDewpointWater temp
2018-May-21 18:14N 29°56' W 090°23'25 0.7
2018-May-20 05:40N 29°36' W 090°40'0 0.0
2018-May-20 05:30N 29°36' W 090°40'0 0.0
2018-May-20 05:00N 29°36' W 090°40'0 0.0
2018-May-20 04:30N 29°36' W 090°40'0 0.0
2018-May-20 04:00N 29°36' W 090°40'0 0.0
2018-May-20 03:31N 29°36' W 090°40'0 0.0
2018-May-20 03:01N 29°36' W 090°40'0 0.0
2018-May-20 02:31N 29°36' W 090°40'0 0.0
2018-May-20 02:01N 29°36' W 090°40'0 0.1
2018-May-20 01:30N 29°36' W 090°40'0 0.3
2018-May-20 01:00N 29°36' W 090°40'0 0.0
2018-May-20 00:30N 29°36' W 090°40'0 0.0
2018-May-20 00:01N 29°36' W 090°40'0 0.0
2018-May-19 23:30N 29°36' W 090°40'0 0.0
2018-May-19 23:01N 29°36' W 090°40'1 2.5
2018-May-19 22:30N 29°37' W 090°41'3 5.8
2018-May-19 22:00N 29°34' W 090°43'1 1.8
2018-May-19 21:30N 29°33' W 090°42'0 0.0
2018-May-19 21:00N 29°33' W 090°42'0 0.0
2018-May-19 20:31N 29°33' W 090°42'1 2.4
2018-May-19 20:01N 29°34' W 090°43'2 4.7
2018-May-19 19:30N 29°37' W 090°42'2 4.4
2018-May-19 19:01N 29°36' W 090°40'0 0.0
2018-May-19 18:31N 29°36' W 090°40'0 0.0
2018-May-19 18:00N 29°36' W 090°40'0 0.0
2018-May-19 17:31N 29°36' W 090°40'0 0.0
2018-May-19 17:00N 29°36' W 090°40'0 0.0
2018-May-19 16:30N 29°36' W 090°40'0 0.0
2018-May-19 16:01N 29°36' W 090°40'0 0.0
2018-May-19 15:31N 29°36' W 090°40'0 0.0
2018-May-19 15:01N 29°36' W 090°40'2 4.3
2018-May-19 14:30N 29°37' W 090°42'3 5.8
2018-May-19 14:01N 29°34' W 090°43'0 0.7
2018-May-19 13:31N 29°34' W 090°43'0 0.4
2018-May-19 13:00N 29°34' W 090°42'0 1.0
2018-May-19 12:31N 29°34' W 090°43'2 4.7
2018-May-19 12:00N 29°36' W 090°43'2 4.3
2018-May-19 11:31N 29°36' W 090°40'0 0.0
2018-May-19 10:58N 29°36' W 090°40'0 0.0
2018-May-19 10:31N 29°36' W 090°40'0 0.0
2018-May-19 10:00N 29°36' W 090°40'0 0.0
2018-May-19 09:30N 29°36' W 090°40'0 0.0
2018-May-19 09:00N 29°36' W 090°40'0 0.2
2018-May-19 08:31N 29°36' W 090°40'0 0.0
2018-May-19 08:01N 29°36' W 090°40'0 0.1
2018-May-19 07:30N 29°36' W 090°40'0 0.0
2018-May-19 07:00N 29°36' W 090°40'0 0.3
2018-May-19 06:31N 29°36' W 090°40'0 0.7
2018-May-19 06:00N 29°36' W 090°40'2 3.8
2018-May-19 05:31N 29°35' W 090°38'2 3.8
2018-May-19 05:01N 29°35' W 090°36'1 1.7
2018-May-19 04:30N 29°34' W 090°35'2 4.3
2018-May-19 03:59N 29°34' W 090°32'2 4.4
2018-May-19 03:30N 29°34' W 090°30'2 4.4
2018-May-19 02:59N 29°33' W 090°27'33 3.5
2018-May-18 17:26N 29°55' W 089°58'142 3.2
2018-May-16 21:34N 32°05' W 091°05'110.0
2018-May-16 21:29N 32°06' W 091°06'2 5.2
2018-May-16 21:00N 32°08' W 091°04'4 7.4
2018-May-16 20:30N 32°10' W 091°00'5 9.5
2018-May-16 20:00N 32°14' W 090°59'5 8.9
2018-May-16 19:30N 32°18' W 090°55'3 6.0
2018-May-16 19:00N 32°21' W 090°56'4 7.6
2018-May-16 18:30N 32°22' W 091°00'3 6.8
2018-May-16 18:00N 32°26' W 091°01'4 8.2
2018-May-16 17:31N 32°27' W 091°05'4 8.4
2018-May-16 17:00N 32°31' W 091°06'4 8.6
2018-May-16 16:30N 32°35' W 091°08'4 8.1
2018-May-16 15:59N 32°40' W 091°08'  
Track history (hours):
 
Tides and Currents Weather Stations Pressure Air Temp Water Temp Dewpoint Dewpoint Depression Visibility Wind Speed Wind Dir Waves Ship Positions

Capt. W.d. Nunley

Owner: Florida Marine Transporters, LLC, Mandeville, LA. More information available from US FCC via Universal Licensing System and Coast Guard Vessel Documentation Center.

Last reported at 2018-May-21 18:14 UTC. Time now 2018-May-23 01:34 UTC.
Position N 29°56' W 090°23'.

Length 37 m; draft 2.9 m.

Type: Ship (hazmat cat A). MMSI: 367470060.

Date/timePositionNaut miles runAvg speedWind from/ knotsBaromVisibWave heightAir tempDewpointWater temp
2018-May-21 18:14N 29°56' W 090°23'25 0.7
2018-May-20 05:40N 29°36' W 090°40'0 0.0
2018-May-20 05:30N 29°36' W 090°40'0 0.0
2018-May-20 05:00N 29°36' W 090°40'0 0.0
2018-May-20 04:30N 29°36' W 090°40'0 0.0
2018-May-20 04:00N 29°36' W 090°40'0 0.0
2018-May-20 03:31N 29°36' W 090°40'0 0.0
2018-May-20 03:01N 29°36' W 090°40'0 0.0
2018-May-20 02:31N 29°36' W 090°40'0 0.0
2018-May-20 02:01N 29°36' W 090°40'0 0.1
2018-May-20 01:30N 29°36' W 090°40'0 0.3
2018-May-20 01:00N 29°36' W 090°40'0 0.0
2018-May-20 00:30N 29°36' W 090°40'0 0.0
2018-May-20 00:01N 29°36' W 090°40'0 0.0
2018-May-19 23:30N 29°36' W 090°40'0 0.0
2018-May-19 23:01N 29°36' W 090°40'1 2.5
2018-May-19 22:30N 29°37' W 090°41'3 5.8
2018-May-19 22:00N 29°34' W 090°43'1 1.8
2018-May-19 21:30N 29°33' W 090°42'0 0.0
2018-May-19 21:00N 29°33' W 090°42'0 0.0
2018-May-19 20:31N 29°33' W 090°42'1 2.4
2018-May-19 20:01N 29°34' W 090°43'2 4.7
2018-May-19 19:30N 29°37' W 090°42'2 4.4
2018-May-19 19:01N 29°36' W 090°40'0 0.0
2018-May-19 18:31N 29°36' W 090°40'0 0.0
2018-May-19 18:00N 29°36' W 090°40'0 0.0
2018-May-19 17:31N 29°36' W 090°40'0 0.0
2018-May-19 17:00N 29°36' W 090°40'0 0.0
2018-May-19 16:30N 29°36' W 090°40'0 0.0
2018-May-19 16:01N 29°36' W 090°40'0 0.0
2018-May-19 15:31N 29°36' W 090°40'0 0.0
2018-May-19 15:01N 29°36' W 090°40'2 4.3
2018-May-19 14:30N 29°37' W 090°42'3 5.8
2018-May-19 14:01N 29°34' W 090°43'0 0.7
2018-May-19 13:31N 29°34' W 090°43'0 0.4
2018-May-19 13:00N 29°34' W 090°42'0 1.0
2018-May-19 12:31N 29°34' W 090°43'2 4.7
2018-May-19 12:00N 29°36' W 090°43'2 4.3
2018-May-19 11:31N 29°36' W 090°40'0 0.0
2018-May-19 10:58N 29°36' W 090°40'0 0.0
2018-May-19 10:31N 29°36' W 090°40'0 0.0
2018-May-19 10:00N 29°36' W 090°40'0 0.0
2018-May-19 09:30N 29°36' W 090°40'0 0.0
2018-May-19 09:00N 29°36' W 090°40'0 0.2
2018-May-19 08:31N 29°36' W 090°40'0 0.0
2018-May-19 08:01N 29°36' W 090°40'0 0.1
2018-May-19 07:30N 29°36' W 090°40'0 0.0
2018-May-19 07:00N 29°36' W 090°40'0 0.3
2018-May-19 06:31N 29°36' W 090°40'0 0.7
2018-May-19 06:00N 29°36' W 090°40'2 3.8
2018-May-19 05:31N 29°35' W 090°38'2 3.8
2018-May-19 05:01N 29°35' W 090°36'1 1.7
2018-May-19 04:30N 29°34' W 090°35'2 4.3
2018-May-19 03:59N 29°34' W 090°32'2 4.4
2018-May-19 03:30N 29°34' W 090°30'2 4.4
2018-May-19 02:59N 29°33' W 090°27'33 3.5
2018-May-18 17:26N 29°55' W 089°58'142 3.2
2018-May-16 21:34N 32°05' W 091°05'110.0
2018-May-16 21:29N 32°06' W 091°06'2 5.2
2018-May-16 21:00N 32°08' W 091°04'4 7.4
2018-May-16 20:30N 32°10' W 091°00'5 9.5
2018-May-16 20:00N 32°14' W 090°59'5 8.9
2018-May-16 19:30N 32°18' W 090°55'3 6.0
2018-May-16 19:00N 32°21' W 090°56'4 7.6
2018-May-16 18:30N 32°22' W 091°00'3 6.8
2018-May-16 18:00N 32°26' W 091°01'4 8.2
2018-May-16 17:31N 32°27' W 091°05'4 8.4
2018-May-16 17:00N 32°31' W 091°06'4 8.6
2018-May-16 16:30N 32°35' W 091°08'4 8.1
2018-May-16 15:59N 32°40' W 091°08'  

Dump ship's entire track history